Nathrop, Colorado
Current Conditions -  °F | °C
As of 8:15 AM on Monday 24 Nov 2014 (Local Time) from KAEJ Reporting Station
Broken Clouds Broken Clouds  
Wind Chill: 13°   Ceiling: 12000
Heat Index: 24°   Visibility: 10mi
Dew Point:   Wind: 12mph
Humidity: 40%   Direction: 270°W
Pressure: 29.99"   Gusts: 22mph
Location:  38.75°N, 106.08°W
Report Text: KAEJ 241515Z AUTO 27010G19KT 10SM SCT100 BKN120 M05/M16 A2999 RMK AO2 T10461164
Loading
Personal Weather Stations






























Interactive Weather Map New forecast layout! Learn more

10-Day Weather Forecast

Advertisements
Track Severe Weather on mobile